Decoded Metar for KLEE (LEESBURG in FL, USA) (IATA:LEE) | Meteo·Mobile Aviation Weather
aviador You're here:

KLEE Decoded Metar

LEESBURG in FL, USA
Report Time2018-11-20 05:23:00
UTC Time2018-11-20 05:41:25
Flight Rules vfr VFR
WindCalm
Visibility9999 m
Phenomena:N/A
Clouds:Few 003 Hf
Few 045 Hf
Expected CloudBase > 400 ft AGL from Temp-Dew spread
CeilingNone
Temp18°C (ISA +3)
Dew Point17°C (94% RH)
QNH1019 hPa
Density Alt499 ft
Elevation75 ft
Report Wrong Elevation
Raw Report
KLEE 200523Z AUTO 00000KT 10SM FEW003 FEW045 18/17 A3009 RMK AO2
T01780172=

Extra information for KLEE:More info

Metar Taf Metar & Taf Last 4 Metars F.Rules Stats Wind Profile Meteogram Temp Stats Airport Information Weather charts Add Link Nearby VenuesMetar ALERT Operation Metar Decoded Social comments

AIRNAV info for KLEE